createdAt,value
2022-12-12T06:11:40.597Z,99683.00
2022-12-12T06:14:08.241Z,99686.47
2022-12-12T06:16:35.518Z,99686.44
2022-12-12T06:19:03.971Z,99691.69
2022-12-12T06:21:30.609Z,99696.91
2022-12-12T06:23:57.858Z,99694.31
2022-12-12T06:26:24.593Z,99686.47
2022-12-12T06:28:52.425Z,99689.94
2022-12-12T06:31:19.302Z,99693.44
2022-12-12T06:33:46.589Z,99687.34
2022-12-12T06:36:23.847Z,99694.31
2022-12-12T06:38:55.761Z,99689.97
2022-12-12T06:41:24.432Z,99689.94
2022-12-12T06:43:51.921Z,99684.72
2022-12-12T06:46:23.255Z,99689.94
2022-12-12T06:48:50.884Z,99691.66
2022-12-12T06:51:21.589Z,99693.44
2022-12-12T06:53:49.343Z,99700.38
2022-12-12T06:56:21.387Z,99702.09
2022-12-12T06:58:49.055Z,99702.09
2022-12-12T07:01:21.591Z,99708.22
2022-12-12T07:03:50.694Z,99707.34
2022-12-12T07:06:18.834Z,99711.69
2022-12-12T07:08:46.502Z,99714.28
2022-12-12T07:11:21.868Z,99705.56
2022-12-12T07:13:49.154Z,99708.16
2022-12-12T07:16:16.081Z,99705.56
2022-12-12T07:18:43.566Z,99703.78
2022-12-12T07:21:13.579Z,99715.09
2022-12-12T07:23:41.147Z,99711.63
2022-12-12T07:26:12.857Z,99712.47
2022-12-12T07:28:40.057Z,99711.59
2022-12-12T07:31:08.937Z,99706.38
2022-12-12T07:33:43.688Z,99708.13
2022-12-12T07:36:13.507Z,99713.34
2022-12-12T07:38:41.097Z,99715.94
2022-12-12T07:41:10.643Z,99715.94
2022-12-12T07:43:43.269Z,99721.16
2022-12-12T07:46:14.414Z,99724.59
2022-12-12T07:48:41.080Z,99730.69
2022-12-12T07:51:08.209Z,99731.53
2022-12-12T07:53:35.312Z,99731.53
2022-12-12T07:56:06.739Z,99737.66
2022-12-12T07:58:33.849Z,99728.09
2022-12-12T08:01:00.774Z,99729.81
2022-12-12T08:03:27.437Z,99728.13
2022-12-12T08:05:54.420Z,99724.59
2022-12-12T08:08:21.385Z,99737.69
2022-12-12T08:10:47.974Z,99735.09
2022-12-12T08:13:15.189Z,99734.22
2022-12-12T08:15:43.091Z,99742.06
2022-12-12T08:18:10.384Z,99741.19
2022-12-12T08:20:40.118Z,99743.81
2022-12-12T08:23:07.679Z,99752.53
2022-12-12T08:25:36.088Z,99747.31
2022-12-12T08:28:03.673Z,99739.47
2022-12-12T08:30:30.202Z,99742.09
2022-12-12T08:32:57.431Z,99744.69
2022-12-12T08:35:24.035Z,99747.34
2022-12-12T08:37:51.230Z,99751.69
2022-12-12T08:40:17.794Z,99740.38
2022-12-12T08:42:45.063Z,99741.25
2022-12-12T08:45:12.448Z,99743.88
2022-12-12T08:47:39.870Z,99755.22
2022-12-12T08:50:07.237Z,99751.72
2022-12-12T08:52:34.469Z,99751.75
2022-12-12T08:55:01.027Z,99754.34
2022-12-12T08:57:28.251Z,99756.97
2022-12-12T08:59:54.892Z,99757.84
2022-12-12T09:02:22.220Z,99759.59
2022-12-12T09:04:48.824Z,99759.59
2022-12-12T09:07:15.982Z,99761.34
2022-12-12T09:09:42.541Z,99765.69
2022-12-12T09:12:09.873Z,99766.59
2022-12-12T09:14:36.749Z,99768.34
2022-12-12T09:17:03.971Z,99766.59
2022-12-12T09:19:31.018Z,99764.00
2022-12-12T09:21:58.172Z,99761.38
2022-12-12T09:24:25.451Z,99770.09
2022-12-12T09:26:52.663Z,99764.03
2022-12-12T09:29:19.250Z,99773.63
2022-12-12T09:31:46.559Z,99770.13
2022-12-12T09:34:13.594Z,99771.88
2022-12-12T09:36:40.863Z,99778.84
2022-12-12T09:39:07.485Z,99770.13
2022-12-12T09:41:34.736Z,99770.13
2022-12-12T09:44:04.940Z,99771.91
2022-12-12T09:46:40.108Z,99770.16
2022-12-12T09:49:27.944Z,99778.88
2022-12-12T09:51:56.872Z,99771.88
2022-12-12T09:54:26.159Z,99774.53
2022-12-12T09:57:05.086Z,99773.66
2022-12-12T09:59:55.059Z,99769.28
2022-12-12T10:02:30.680Z,99768.41
2022-12-12T10:05:02.199Z,99766.66
2022-12-12T10:07:39.290Z,99773.63
2022-12-12T10:10:09.520Z,99759.69
2022-12-12T10:12:36.111Z,99765.78
2022-12-12T10:15:13.267Z,99771.00
2022-12-12T10:17:44.762Z,99772.75
2022-12-12T10:20:23.929Z,99771.88
2022-12-12T10:23:05.809Z,99773.63
2022-12-12T10:25:32.921Z,99772.75
2022-12-12T10:28:15.202Z,99774.44
2022-12-12T10:30:57.495Z,99775.31
2022-12-12T10:33:53.507Z,99777.06
2022-12-12T10:36:53.786Z,99775.28
2022-12-12T10:39:37.112Z,99770.06
2022-12-12T10:42:41.054Z,99769.19
2022-12-12T10:45:41.055Z,99763.09
2022-12-12T10:48:07.678Z,99767.44
2022-12-12T10:50:39.703Z,99761.31
2022-12-12T10:53:08.666Z,99752.56
2022-12-12T10:55:56.879Z,99754.28
2022-12-12T10:58:28.555Z,99753.34
2022-12-12T11:01:05.061Z,99752.44
2022-12-12T11:03:52.113Z,99757.63
2022-12-12T11:06:29.390Z,99760.22
2022-12-12T11:09:07.081Z,99749.69
2022-12-12T11:11:34.573Z,99754.03
2022-12-12T11:14:03.570Z,99750.53
2022-12-12T11:16:51.025Z,99750.50
2022-12-12T11:19:27.229Z,99748.75
2022-12-12T11:21:56.184Z,99748.72
2022-12-12T11:24:29.706Z,99749.53
2022-12-12T11:27:00.733Z,99746.00
2022-12-12T11:29:30.237Z,99737.22
2022-12-12T11:31:58.962Z,99741.63
2022-12-12T11:34:27.609Z,99737.25
2022-12-12T11:36:58.043Z,99739.88
2022-12-12T11:39:44.076Z,99743.38
2022-12-12T11:42:14.023Z,99747.78
2022-12-12T11:44:41.552Z,99752.13
2022-12-12T11:47:43.587Z,99742.44
2022-12-12T11:50:44.201Z,99743.28
2022-12-12T11:53:11.419Z,99738.09
2022-12-12T11:56:01.406Z,99731.09
2022-12-12T11:58:37.016Z,99720.56
2022-12-12T12:01:21.192Z,99731.84
2022-12-12T12:04:17.729Z,99729.22
2022-12-12T12:07:06.190Z,99725.66
2022-12-12T12:10:26.156Z,99727.38
2022-12-12T12:12:55.991Z,99727.34
2022-12-12T12:15:30.828Z,99726.50
2022-12-12T12:18:28.042Z,99720.31
2022-12-12T12:20:57.983Z,99728.19
2022-12-12T12:23:42.466Z,99728.16
2022-12-12T12:26:40.440Z,99717.66
2022-12-12T12:29:15.220Z,99727.38
2022-12-12T12:32:00.983Z,99726.44
2022-12-12T12:35:02.835Z,99716.06
2022-12-12T12:37:29.925Z,99723.06
2022-12-12T12:40:05.165Z,99718.72
2022-12-12T12:42:54.882Z,99714.31
2022-12-12T12:45:45.545Z,99715.22
2022-12-12T12:48:24.982Z,99714.34
2022-12-12T12:51:10.686Z,99715.22
2022-12-12T12:53:42.780Z,99713.44
2022-12-12T12:56:26.483Z,99711.69
2022-12-12T12:59:10.405Z,99720.34
2022-12-12T13:01:49.126Z,99715.09
2022-12-12T13:04:29.478Z,99717.75
2022-12-12T13:07:05.789Z,99730.78
2022-12-12T13:09:40.578Z,99730.78
2022-12-12T13:12:29.170Z,99722.91
2022-12-12T13:15:13.227Z,99731.66
2022-12-12T13:17:56.258Z,99727.25
2022-12-12T13:20:25.639Z,99720.34
2022-12-12T13:23:15.882Z,99716.97
2022-12-12T13:25:51.637Z,99723.06
2022-12-12T13:28:23.517Z,99722.22
2022-12-12T13:30:52.737Z,99725.69
2022-12-12T13:33:25.539Z,99718.69
2022-12-12T13:35:58.154Z,99722.25
2022-12-12T13:38:32.741Z,99721.38
2022-12-12T13:41:06.318Z,99712.72
2022-12-12T13:43:33.421Z,99719.75
2022-12-12T13:46:20.110Z,99715.38
2022-12-12T13:49:16.738Z,99724.09
2022-12-12T13:51:45.414Z,99722.38
2022-12-12T13:54:14.217Z,99728.44
2022-12-12T13:56:54.122Z,99724.97
2022-12-12T13:59:23.523Z,99724.09
2022-12-12T14:02:09.410Z,99724.06
2022-12-12T14:04:39.576Z,99723.19
2022-12-12T14:07:12.878Z,99727.50
2022-12-12T14:09:50.632Z,99722.38
2022-12-12T14:12:30.752Z,99727.59
2022-12-12T14:15:05.287Z,99722.34
2022-12-12T14:17:42.369Z,99717.09
2022-12-12T14:20:31.301Z,99727.63
2022-12-12T14:23:13.903Z,99726.75
2022-12-12T14:25:41.387Z,99727.66
2022-12-12T14:28:22.402Z,99722.44
2022-12-12T14:31:01.737Z,99718.03
2022-12-12T14:33:31.871Z,99725.00
2022-12-12T14:36:09.805Z,99724.19
2022-12-12T14:38:52.163Z,99741.69
2022-12-12T14:41:27.895Z,99737.34
2022-12-12T14:44:35.418Z,99739.06
2022-12-12T14:46:46.980Z,99734.72
2022-12-12T14:49:18.487Z,99745.22
2022-12-12T14:51:55.067Z,99743.50
2022-12-12T14:54:24.621Z,99745.28
2022-12-12T14:56:54.321Z,99752.25
2022-12-12T14:59:28.988Z,99751.38
2022-12-12T15:01:59.519Z,99754.88
2022-12-12T15:04:32.656Z,99754.06
2022-12-12T15:07:01.548Z,99765.47
2022-12-12T15:09:31.296Z,99764.59
2022-12-12T15:12:09.927Z,99757.63
2022-12-12T15:14:54.490Z,99759.41
2022-12-12T15:17:21.478Z,99755.03
2022-12-12T15:19:51.321Z,99759.44
2022-12-12T15:22:18.064Z,99764.69
2022-12-12T15:24:45.934Z,99768.19
2022-12-12T15:27:19.885Z,99767.31
2022-12-12T15:29:47.141Z,99763.84
2022-12-12T15:32:20.314Z,99757.75
2022-12-12T15:34:58.588Z,99756.88
2022-12-12T15:37:27.833Z,99750.78
2022-12-12T15:40:01.702Z,99749.00
2022-12-12T15:42:28.983Z,99751.63
2022-12-12T15:44:56.613Z,99750.75
2022-12-12T15:47:23.290Z,99749.84
2022-12-12T15:49:52.516Z,99755.97
2022-12-12T15:52:26.821Z,99754.25
2022-12-12T15:54:57.264Z,99760.38
2022-12-12T15:57:30.722Z,99754.25
2022-12-12T16:00:11.306Z,99762.13
2022-12-12T16:02:38.406Z,99762.13
2022-12-12T16:05:05.606Z,99768.25
2022-12-12T16:07:37.348Z,99754.28
2022-12-12T16:10:21.504Z,99762.16
2022-12-12T16:12:59.900Z,99761.28
2022-12-12T16:15:32.056Z,99759.56
2022-12-12T16:18:05.209Z,99766.53
2022-12-12T16:20:33.928Z,99770.03
2022-12-12T16:23:18.017Z,99770.03
2022-12-12T16:25:45.409Z,99771.78
2022-12-12T16:28:17.937Z,99768.31
2022-12-12T16:30:58.716Z,99767.44
2022-12-12T16:33:27.968Z,99764.84
2022-12-12T16:35:55.148Z,99778.78
2022-12-12T16:38:22.157Z,99772.69
2022-12-12T16:40:51.500Z,99769.22
2022-12-12T16:43:20.549Z,99775.31
2022-12-12T16:45:49.447Z,99775.31
2022-12-12T16:48:19.065Z,99777.94
2022-12-12T16:50:46.445Z,99773.56
2022-12-12T16:53:13.746Z,99770.09
2022-12-12T16:55:43.304Z,99767.47
2022-12-12T16:58:10.282Z,99766.63
2022-12-12T17:00:38.451Z,99767.47
2022-12-12T17:03:05.400Z,99763.97
2022-12-12T17:05:32.850Z,99761.34
2022-12-12T17:07:59.425Z,99762.25
2022-12-12T17:10:26.752Z,99765.72
2022-12-12T17:12:54.315Z,99764.88
2022-12-12T17:15:24.783Z,99761.38
2022-12-12T17:17:51.666Z,99771.84
2022-12-12T17:20:18.971Z,99763.13
2022-12-12T17:22:46.312Z,99768.34
2022-12-12T17:25:14.331Z,99764.00
2022-12-12T17:27:41.576Z,99765.78
2022-12-12T17:30:09.513Z,99758.81
2022-12-12T17:32:36.247Z,99758.78
2022-12-12T17:35:04.730Z,99763.16
2022-12-12T17:37:31.446Z,99762.28
2022-12-12T17:39:58.462Z,99762.28
2022-12-12T17:42:30.293Z,99766.66
2022-12-12T17:44:57.243Z,99772.75
2022-12-12T17:47:23.829Z,99771.88
2022-12-12T17:49:51.029Z,99775.38
2022-12-12T17:52:17.686Z,99774.53
2022-12-12T17:54:44.638Z,99775.41
2022-12-12T17:57:31.467Z,99775.38
2022-12-12T17:59:58.846Z,99768.41
2022-12-12T18:02:25.737Z,99784.09
2022-12-12T18:04:52.987Z,99781.50
2022-12-12T18:07:19.904Z,99776.22
2022-12-12T18:09:47.146Z,99782.34
2022-12-12T18:12:13.747Z,99779.72
2022-12-12T18:14:41.035Z,99778.84
2022-12-12T18:17:07.657Z,99780.59
2022-12-12T18:19:35.108Z,99775.31
2022-12-12T18:22:02.366Z,99782.28
2022-12-12T18:24:30.629Z,99780.50
2022-12-12T18:26:59.825Z,99779.66
2022-12-12T18:29:27.683Z,99782.25
2022-12-12T18:31:54.355Z,99777.00
2022-12-12T18:34:21.886Z,99780.50
2022-12-12T18:36:49.661Z,99783.09
2022-12-12T18:39:17.204Z,99786.56
2022-12-12T18:41:43.839Z,99792.63
2022-12-12T18:44:14.480Z,99788.28
2022-12-12T18:46:43.482Z,99794.34
2022-12-12T18:49:13.918Z,99791.72
2022-12-12T18:51:40.966Z,99797.81
2022-12-12T18:54:14.177Z,99803.00
2022-12-12T18:56:42.618Z,99800.38
2022-12-12T18:59:09.782Z,99801.25
2022-12-12T19:01:36.961Z,99801.22
2022-12-12T19:04:12.208Z,99805.56
2022-12-12T19:06:42.232Z,99795.09
2022-12-12T19:09:16.084Z,99797.72
2022-12-12T19:11:43.512Z,99795.97
2022-12-12T19:14:12.784Z,99797.69
2022-12-12T19:16:39.626Z,99805.53
2022-12-12T19:19:09.506Z,99799.44
2022-12-12T19:21:37.433Z,99796.81
2022-12-12T19:24:09.380Z,99794.22
2022-12-12T19:26:37.135Z,99796.78
2022-12-12T19:29:07.871Z,99788.94
2022-12-12T19:31:35.948Z,99789.84
2022-12-12T19:34:04.745Z,99782.00
2022-12-12T19:36:31.661Z,99787.19
2022-12-12T19:39:01.294Z,99788.88
2022-12-12T19:41:27.929Z,99787.16
2022-12-12T19:43:57.466Z,99790.59
2022-12-12T19:46:26.942Z,99785.41
2022-12-12T19:48:58.143Z,99789.75
2022-12-12T19:51:26.594Z,99780.16
2022-12-12T19:53:57.229Z,99787.94
2022-12-12T19:56:30.482Z,99781.84
2022-12-12T19:58:59.310Z,99777.47
2022-12-12T20:01:29.067Z,99781.81
2022-12-12T20:03:58.911Z,99778.28
2022-12-12T20:06:26.105Z,99784.38
2022-12-12T20:08:53.729Z,99785.19
2022-12-12T20:11:22.956Z,99778.19
2022-12-12T20:13:51.727Z,99785.09
2022-12-12T20:16:20.720Z,99779.84
2022-12-12T20:18:52.696Z,99779.84
2022-12-12T20:21:51.748Z,99779.84
2022-12-12T20:24:10.020Z,99779.81
2022-12-12T20:26:37.467Z,99791.06
2022-12-12T20:29:05.319Z,99787.53
2022-12-12T20:31:34.920Z,99797.97
2022-12-12T20:34:02.400Z,99784.03
2022-12-12T20:36:34.409Z,99790.09
2022-12-12T20:39:04.556Z,99790.06
2022-12-12T20:41:34.040Z,99793.50
2022-12-12T20:44:01.405Z,99789.16
2022-12-12T20:46:30.756Z,99785.63
2022-12-12T20:48:58.640Z,99786.47
2022-12-12T20:54:22.462Z,99790.72
2022-12-12T20:56:49.573Z,99783.75
2022-12-12T20:59:16.491Z,99788.06
2022-12-12T21:01:43.937Z,99788.00
2022-12-12T21:04:10.647Z,99791.47
2022-12-12T21:06:41.048Z,99789.75
2022-12-12T21:09:10.206Z,99794.03
2022-12-12T21:11:38.909Z,99785.28
2022-12-12T21:14:06.928Z,99787.00
2022-12-12T21:16:39.034Z,99783.50
2022-12-12T21:19:08.780Z,99777.41
2022-12-12T21:21:36.826Z,99779.13
2022-12-12T21:24:04.722Z,99775.63
2022-12-12T21:26:32.389Z,99773.00
2022-12-12T21:29:01.666Z,99777.34
